Time;durP1;ratioP1;P1;durP2;ratioP2;P2;SDS_P1;SDS_P2;PMS_P1;PMS_P2;Temp;Humidity;BMP_temperature;BMP_pressure;BME280_temperature;BME280_humidity;BME280_pressure;Samples;Min_cycle;Max_cycle;Signal;HPM_P1;HPM_P2
2020/12/07 00:01:25;;;;;;;108.60;42.40;;;1.70;99.90;;;;;;5108490;28;20030;-45
2020/12/07 00:03:50;;;;;;;126.50;46.45;;;1.80;99.90;;;;;;5108143;28;20031;-45
2020/12/07 00:06:17;;;;;;;113.32;43.75;;;1.70;99.90;;;;;;5108530;28;20026;-45
2020/12/07 00:08:44;;;;;;;129.77;47.65;;;1.80;99.90;;;;;;5108350;28;20032;-45
2020/12/07 00:11:10;;;;;;;121.13;45.63;;;1.70;99.90;;;;;;5108568;28;20504;-45
2020/12/07 00:13:36;;;;;;;139.43;44.95;;;1.70;99.90;;;;;;5107943;28;20031;-45
2020/12/07 00:16:02;;;;;;;146.43;45.63;;;1.70;99.90;;;;;;5108565;28;20043;-45
2020/12/07 00:18:28;;;;;;;152.82;48.20;;;1.70;99.90;;;;;;5108232;28;20099;-45
2020/12/07 00:20:53;;;;;;;205.18;49.22;;;1.70;99.90;;;;;;5108649;28;20127;-45
2020/12/07 00:23:19;;;;;;;142.00;47.70;;;1.60;99.90;;;;;;5108110;28;20048;-45
2020/12/07 00:25:45;;;;;;;189.95;46.65;;;1.60;99.90;;;;;;5107876;28;20111;-45
2020/12/07 00:28:11;;;;;;;216.13;48.80;;;1.70;99.90;;;;;;5107128;28;20051;-45
2020/12/07 00:30:37;;;;;;;291.52;46.45;;;1.70;99.90;;;;;;5108047;28;20490;-45
2020/12/07 00:33:03;;;;;;;213.07;47.00;;;1.80;99.90;;;;;;5111198;28;20059;-45
2020/12/07 00:35:28;;;;;;;247.98;50.28;;;1.70;99.90;;;;;;5111852;28;20103;-45
2020/12/07 00:37:54;;;;;;;194.40;43.80;;;1.70;99.90;;;;;;5109569;28;20058;-49
2020/12/07 00:40:20;;;;;;;227.15;45.50;;;1.70;99.90;;;;;;5111487;28;20035;-46
2020/12/07 00:42:45;;;;;;;303.75;51.75;;;1.60;99.90;;;;;;5110640;28;20123;-45
2020/12/07 00:45:11;;;;;;;243.75;46.42;;;1.60;99.90;;;;;;5110880;28;20035;-45
2020/12/07 00:47:37;;;;;;;166.85;42.38;;;1.60;99.90;;;;;;5111041;28;20042;-45
2020/12/07 00:50:03;;;;;;;205.18;46.97;;;1.60;99.90;;;;;;5110926;28;20031;-45
2020/12/07 00:52:29;;;;;;;213.75;45.42;;;1.60;99.90;;;;;;5111321;28;20393;-45
2020/12/07 00:54:55;;;;;;;235.23;47.33;;;1.60;99.90;;;;;;5111810;28;20031;-45
2020/12/07 00:57:20;;;;;;;237.27;45.88;;;1.50;99.90;;;;;;5111249;28;20039;-45
2020/12/07 00:59:46;;;;;;;269.10;47.25;;;1.50;99.90;;;;;;5110051;28;20085;-45
2020/12/07 01:02:11;;;;;;;168.82;42.78;;;1.60;99.90;;;;;;5109922;28;20035;-45
2020/12/07 01:04:37;;;;;;;260.63;46.90;;;1.60;99.90;;;;;;5110828;28;20122;-45
2020/12/07 01:07:03;;;;;;;238.98;48.40;;;1.60;99.90;;;;;;5110048;28;20077;-45
2020/12/07 01:09:29;;;;;;;261.42;47.78;;;1.60;99.90;;;;;;5109250;28;20119;-45
2020/12/07 01:11:57;;;;;;;199.35;44.20;;;1.60;99.90;;;;;;5111509;28;20039;-45
2020/12/07 01:14:23;;;;;;;240.88;44.67;;;1.60;99.90;;;;;;5110861;28;20039;-45
2020/12/07 01:16:50;;;;;;;228.23;47.47;;;1.70;99.90;;;;;;5111063;28;20119;-45
2020/12/07 01:19:16;;;;;;;190.95;42.72;;;1.70;99.90;;;;;;5111140;28;20032;-45
2020/12/07 01:21:42;;;;;;;190.98;41.75;;;1.60;99.90;;;;;;5110883;28;20031;-45
2020/12/07 01:24:08;;;;;;;202.32;42.17;;;1.60;99.90;;;;;;5110413;28;20133;-45
2020/12/07 01:26:34;;;;;;;184.40;44.05;;;1.60;99.90;;;;;;5109601;28;20096;-47
2020/12/07 01:29:01;;;;;;;271.00;46.40;;;1.60;99.90;;;;;;5109713;28;20478;-45
2020/12/07 01:31:33;;;;;;;161.27;37.90;;;1.60;99.90;;;;;;5109540;28;20042;-46
2020/12/07 01:33:59;;;;;;;311.83;45.20;;;1.60;99.90;;;;;;5109508;28;20040;-46
2020/12/07 01:36:25;;;;;;;220.65;44.15;;;1.50;99.90;;;;;;5109633;28;20145;-46
2020/12/07 01:38:51;;;;;;;194.68;40.42;;;1.60;99.90;;;;;;5109489;28;20144;-45
2020/12/07 01:41:17;;;;;;;155.75;38.60;;;1.50;99.90;;;;;;5109426;28;20058;-45
2020/12/07 01:43:43;;;;;;;139.68;33.80;;;1.60;99.90;;;;;;5109456;28;20046;-45
2020/12/07 01:46:09;;;;;;;257.38;44.55;;;1.60;99.90;;;;;;5110376;28;20124;-45
2020/12/07 01:48:37;;;;;;;255.05;40.75;;;1.50;99.90;;;;;;5110238;28;20036;-45
2020/12/07 01:51:03;;;;;;;313.40;42.97;;;1.50;99.90;;;;;;5110340;28;20487;-45
2020/12/07 01:53:28;;;;;;;222.25;38.13;;;1.50;99.90;;;;;;5109940;28;20031;-45
2020/12/07 01:55:54;;;;;;;212.00;37.85;;;1.40;99.90;;;;;;5110501;28;20043;-45
2020/12/07 01:58:21;;;;;;;196.73;40.63;;;1.40;99.90;;;;;;5109890;28;20039;-45
2020/12/07 02:00:46;;;;;;;339.58;45.72;;;1.40;99.90;;;;;;5110173;28;20476;-45
2020/12/07 02:03:12;;;;;;;200.98;37.75;;;1.40;99.90;;;;;;5110074;28;20039;-45
2020/12/07 02:05:39;;;;;;;204.45;38.65;;;1.40;99.90;;;;;;5110372;28;20028;-45
2020/12/07 02:08:19;;;;;;;147.57;35.53;;;1.40;99.90;;;;;;5110090;28;20028;-46
2020/12/07 02:10:46;;;;;;;223.65;40.33;;;1.50;99.90;;;;;;5108856;28;20035;-45
2020/12/07 02:13:12;;;;;;;187.60;39.45;;;1.60;99.90;;;;;;5109836;28;20027;-45
2020/12/07 02:15:39;;;;;;;223.10;41.17;;;1.60;99.90;;;;;;5110198;28;20081;-45
2020/12/07 02:18:06;;;;;;;283.98;40.70;;;1.60;99.90;;;;;;5109804;28;20074;-45
2020/12/07 02:20:32;;;;;;;294.25;44.10;;;1.60;99.90;;;;;;5109921;28;20361;-45
2020/12/07 02:22:58;;;;;;;197.13;36.75;;;1.60;99.90;;;;;;5109550;28;20050;-44
2020/12/07 02:25:24;;;;;;;184.00;37.28;;;1.60;99.90;;;;;;5109000;28;20032;-45
2020/12/07 02:27:51;;;;;;;251.23;40.08;;;1.70;99.90;;;;;;5109068;28;20043;-45
2020/12/07 02:30:18;;;;;;;251.43;36.95;;;1.80;99.90;;;;;;5108032;28;20055;-45
2020/12/07 02:32:47;;;;;;;322.77;40.00;;;1.80;99.90;;;;;;5088857;27;20115;-45
2020/12/07 02:35:13;;;;;;;298.95;41.00;;;1.80;99.90;;;;;;5089972;28;20028;-46
2020/12/07 02:37:41;;;;;;;328.23;39.75;;;1.70;99.90;;;;;;5092846;28;20486;-45
2020/12/07 02:40:08;;;;;;;298.65;39.72;;;1.70;99.90;;;;;;5110674;28;20096;-45
2020/12/07 02:42:35;;;;;;;247.68;38.60;;;1.70;99.90;;;;;;5108395;28;20028;-45
2020/12/07 02:45:06;;;;;;;417.40;45.83;;;1.80;99.90;;;;;;5110151;28;20127;-45
2020/12/07 02:47:32;;;;;;;256.75;39.10;;;1.80;99.90;;;;;;5100605;28;20118;-45
2020/12/07 02:49:58;;;;;;;271.30;39.70;;;1.80;99.90;;;;;;5101369;28;20028;-45
2020/12/07 02:52:24;;;;;;;301.15;40.13;;;1.80;99.90;;;;;;5105861;28;20024;-45
2020/12/07 02:54:54;;;;;;;249.70;39.20;;;1.80;99.90;;;;;;5101925;28;20118;-45
2020/12/07 02:57:20;;;;;;;230.05;40.35;;;1.90;99.90;;;;;;5103529;28;20032;-45
2020/12/07 02:59:46;;;;;;;162.75;34.28;;;1.90;99.90;;;;;;5102187;28;20133;-45
2020/12/07 03:02:12;;;;;;;222.43;37.63;;;1.90;99.90;;;;;;5099132;28;20055;-47
2020/12/07 03:04:38;;;;;;;202.52;36.25;;;2.00;99.90;;;;;;5105216;28;20505;-45
2020/12/07 03:07:03;;;;;;;265.20;39.60;;;1.90;99.90;;;;;;5098447;27;20023;-46
2020/12/07 03:09:29;;;;;;;208.85;34.53;;;1.90;99.90;;;;;;5098693;28;20035;-46
2020/12/07 03:11:55;;;;;;;185.45;32.60;;;1.90;99.90;;;;;;5098362;28;20462;-45
2020/12/07 03:14:20;;;;;;;165.23;32.97;;;2.00;99.90;;;;;;5098552;28;20034;-45
2020/12/07 03:16:46;;;;;;;191.25;34.92;;;2.10;99.90;;;;;;5102971;28;20035;-45
2020/12/07 03:19:12;;;;;;;218.77;34.15;;;2.10;99.90;;;;;;5100601;28;20088;-44
2020/12/07 03:21:38;;;;;;;216.00;34.58;;;2.00;99.90;;;;;;5097830;28;20023;-45
2020/12/07 03:24:05;;;;;;;243.52;35.40;;;2.00;99.90;;;;;;5103952;28;20936;-45
2020/12/07 03:26:34;;;;;;;195.85;33.72;;;1.90;99.90;;;;;;5105428;28;20035;-45
2020/12/07 03:29:04;;;;;;;203.43;34.00;;;2.00;99.90;;;;;;5098197;28;20027;-45
2020/12/07 03:31:33;;;;;;;167.52;33.30;;;2.00;99.90;;;;;;5102370;28;20031;-45
2020/12/07 03:34:00;;;;;;;112.40;27.30;;;2.00;99.90;;;;;;5109351;28;20024;-45
2020/12/07 03:36:26;;;;;;;131.98;26.02;;;2.10;99.90;;;;;;5109937;28;20533;-45
2020/12/07 03:38:52;;;;;;;171.57;33.38;;;2.10;99.90;;;;;;5106622;28;20034;-46
2020/12/07 03:41:18;;;;;;;161.05;35.47;;;2.10;99.90;;;;;;5110254;28;20030;-45
2020/12/07 03:43:44;;;;;;;162.68;35.22;;;2.10;99.90;;;;;;5109829;28;20048;-46
2020/12/07 03:46:11;;;;;;;159.98;34.30;;;2.20;99.90;;;;;;5109315;28;20038;-45
2020/12/07 03:48:37;;;;;;;180.40;34.72;;;2.20;99.90;;;;;;5106131;28;20027;-45
2020/12/07 03:51:03;;;;;;;164.88;35.85;;;2.10;99.90;;;;;;5110241;28;20495;-46
2020/12/07 03:53:34;;;;;;;177.18;38.42;;;2.20;99.90;;;;;;5108916;28;20084;-46
2020/12/07 03:56:01;;;;;;;150.55;34.17;;;2.20;99.90;;;;;;5109961;28;20035;-46
2020/12/07 03:58:27;;;;;;;147.68;34.17;;;2.30;99.90;;;;;;5105505;28;20031;-46
2020/12/07 04:00:53;;;;;;;128.20;32.17;;;2.20;99.90;;;;;;5108323;28;20098;-45
2020/12/07 04:03:20;;;;;;;140.95;35.15;;;2.40;99.90;;;;;;5099262;28;20537;-46
2020/12/07 04:05:48;;;;;;;125.72;32.97;;;2.30;99.90;;;;;;5111299;28;20067;-45
2020/12/07 04:08:14;;;;;;;158.38;33.83;;;2.30;99.90;;;;;;5113517;28;20039;-46
2020/12/07 04:10:40;;;;;;;118.70;30.67;;;2.30;99.90;;;;;;5113668;28;20431;-46
2020/12/07 04:13:06;;;;;;;128.10;32.00;;;2.40;99.90;;;;;;5113778;28;20024;-46
2020/12/07 04:15:33;;;;;;;132.50;33.15;;;2.40;99.90;;;;;;5110105;28;20027;-46
2020/12/07 04:17:59;;;;;;;142.35;33.53;;;2.40;99.90;;;;;;5109546;28;20024;-46
2020/12/07 04:20:24;;;;;;;127.57;31.92;;;2.40;99.90;;;;;;5113383;28;20102;-45
2020/12/07 04:22:50;;;;;;;152.18;34.55;;;2.40;99.90;;;;;;5113751;28;20126;-45
2020/12/07 04:25:16;;;;;;;141.77;32.83;;;2.40;99.90;;;;;;5113337;28;20033;-45
2020/12/07 04:27:42;;;;;;;193.88;35.40;;;2.40;99.90;;;;;;5113006;28;20135;-47
2020/12/07 04:30:08;;;;;;;211.20;39.08;;;2.30;99.90;;;;;;5113553;28;20536;-46
2020/12/07 04:32:33;;;;;;;155.27;33.33;;;2.40;99.90;;;;;;5112940;28;20479;-45
2020/12/07 04:34:59;;;;;;;217.00;36.72;;;2.40;99.90;;;;;;5112770;28;20034;-45
2020/12/07 04:37:25;;;;;;;196.15;38.03;;;2.40;99.90;;;;;;5113094;28;20078;-47
2020/12/07 04:39:51;;;;;;;156.73;33.78;;;2.40;99.90;;;;;;5108868;28;20040;-45
2020/12/07 04:42:17;;;;;;;194.60;37.63;;;2.30;99.90;;;;;;5113252;28;20032;-45
2020/12/07 04:44:43;;;;;;;196.48;34.47;;;2.40;99.90;;;;;;5113059;28;20040;-45
2020/12/07 04:47:10;;;;;;;158.52;35.20;;;2.30;99.90;;;;;;5113084;28;20035;-46
2020/12/07 04:49:37;;;;;;;170.95;34.03;;;2.40;99.90;;;;;;5112471;28;20358;-45
2020/12/07 04:52:02;;;;;;;151.00;34.40;;;2.30;99.90;;;;;;5112612;28;20365;-45
2020/12/07 04:54:28;;;;;;;147.38;33.53;;;2.40;99.90;;;;;;5112742;28;20056;-46
2020/12/07 04:56:57;;;;;;;130.60;30.92;;;2.40;99.90;;;;;;5112539;28;20058;-45
2020/12/07 04:59:23;;;;;;;158.73;34.45;;;2.40;99.90;;;;;;5112831;27;20023;-45
2020/12/07 05:01:52;;;;;;;148.63;32.15;;;2.40;99.90;;;;;;5113052;28;20050;-45
2020/12/07 05:04:18;;;;;;;154.60;34.92;;;2.30;99.90;;;;;;5112376;28;20566;-45
2020/12/07 05:06:55;;;;;;;136.32;32.03;;;2.30;99.90;;;;;;5112460;28;20114;-46
2020/12/07 05:09:22;;;;;;;133.52;32.50;;;2.30;99.90;;;;;;5112424;28;20551;-45
2020/12/07 05:11:48;;;;;;;117.88;29.65;;;2.40;99.90;;;;;;5112784;28;20020;-45
2020/12/07 05:14:15;;;;;;;114.53;30.70;;;2.30;99.90;;;;;;5112463;28;20035;-45
2020/12/07 05:16:43;;;;;;;111.28;30.50;;;2.40;99.90;;;;;;5111837;28;20417;-45
2020/12/07 05:19:09;;;;;;;136.68;33.13;;;2.40;99.90;;;;;;5112241;28;20032;-46
2020/12/07 05:21:36;;;;;;;118.78;31.60;;;2.30;99.90;;;;;;5112756;28;20486;-46
2020/12/07 05:24:02;;;;;;;114.88;30.88;;;2.30;99.90;;;;;;5112370;27;20051;-45
2020/12/07 05:26:29;;;;;;;133.18;32.20;;;2.30;99.90;;;;;;5112013;28;20032;-45
2020/12/07 05:29:03;;;;;;;121.43;29.55;;;2.40;99.90;;;;;;5112143;28;20523;-46
2020/12/07 05:31:33;;;;;;;109.03;29.33;;;2.50;99.90;;;;;;5111907;28;20466;-46
2020/12/07 05:33:59;;;;;;;136.32;31.33;;;2.40;99.90;;;;;;5112182;27;20084;-47
2020/12/07 05:36:25;;;;;;;125.55;30.85;;;2.40;99.90;;;;;;5111989;28;20031;-46
2020/12/07 05:38:51;;;;;;;145.35;32.13;;;2.40;99.90;;;;;;5111872;28;20039;-45
2020/12/07 05:41:19;;;;;;;161.02;34.45;;;2.40;99.90;;;;;;5112048;28;20111;-46
2020/12/07 05:43:50;;;;;;;138.98;29.85;;;2.30;99.90;;;;;;5111779;28;20043;-45
2020/12/07 05:46:16;;;;;;;119.80;29.67;;;2.20;99.90;;;;;;5112184;28;20024;-46
2020/12/07 05:48:44;;;;;;;119.90;29.92;;;2.20;99.90;;;;;;5095134;27;20542;-47
2020/12/07 05:51:12;;;;;;;129.05;31.13;;;2.20;99.90;;;;;;5090857;28;20079;-45
2020/12/07 05:53:39;;;;;;;115.28;27.92;;;2.30;99.90;;;;;;5090633;28;20028;-45
2020/12/07 05:56:07;;;;;;;103.25;28.25;;;2.20;99.90;;;;;;5090929;28;20402;-45
2020/12/07 05:58:47;;;;;;;92.35;24.83;;;2.20;99.90;;;;;;5104949;28;20038;-45
2020/12/07 06:01:16;;;;;;;120.13;25.45;;;2.10;99.90;;;;;;5109248;27;20032;-45
2020/12/07 06:03:43;;;;;;;201.75;30.15;;;2.00;99.90;;;;;;5088766;27;21542;-45
2020/12/07 06:06:09;;;;;;;128.70;27.58;;;2.00;99.90;;;;;;5110350;28;20118;-46
2020/12/07 06:08:37;;;;;;;119.72;24.55;;;1.90;99.90;;;;;;5108643;28;20107;-45
2020/12/07 06:11:07;;;;;;;257.80;31.63;;;1.90;99.90;;;;;;5101064;28;20336;-45
2020/12/07 06:13:33;;;;;;;166.65;28.67;;;2.00;99.90;;;;;;5105223;28;20107;-46
2020/12/07 06:16:04;;;;;;;117.45;26.33;;;1.90;99.90;;;;;;5110238;28;20023;-47
2020/12/07 06:18:33;;;;;;;123.18;24.65;;;1.90;99.90;;;;;;5099869;28;20039;-45
2020/12/07 06:21:15;;;;;;;96.43;20.88;;;1.90;99.90;;;;;;5090020;28;20505;-45
2020/12/07 06:23:42;;;;;;;85.20;21.73;;;1.90;99.90;;;;;;5098710;28;20036;-45
2020/12/07 06:26:09;;;;;;;122.13;22.08;;;1.90;99.90;;;;;;5092244;28;20036;-45
2020/12/07 06:28:38;;;;;;;77.53;20.85;;;1.80;99.90;;;;;;5104090;28;20047;-45
2020/12/07 06:31:05;;;;;;;101.13;20.88;;;1.70;99.90;;;;;;5104084;28;20446;-45
2020/12/07 06:33:38;;;;;;;137.60;23.45;;;1.70;99.90;;;;;;5100269;28;20024;-45
2020/12/07 06:36:03;;;;;;;154.73;25.48;;;1.70;99.90;;;;;;5097878;28;20073;-46
2020/12/07 06:38:41;;;;;;;177.93;25.25;;;1.70;99.90;;;;;;5099741;27;20059;-45
2020/12/07 06:41:06;;;;;;;192.43;25.98;;;1.60;99.90;;;;;;5100284;28;20062;-45
2020/12/07 06:43:33;;;;;;;161.93;23.98;;;1.50;99.90;;;;;;5095877;28;20181;-46
2020/12/07 06:45:59;;;;;;;241.52;24.05;;;1.60;99.90;;;;;;5099916;28;20024;-45
2020/12/07 06:48:26;;;;;;;153.57;22.83;;;1.60;99.90;;;;;;5094754;27;20034;-52
2020/12/07 06:50:52;;;;;;;131.43;24.38;;;1.50;99.90;;;;;;5089409;28;20035;-45
2020/12/07 06:53:35;;;;;;;210.57;26.20;;;1.50;99.90;;;;;;5100723;28;20044;-45
2020/12/07 06:56:01;;;;;;;146.73;18.02;;;1.50;99.90;;;;;;5106592;28;20032;-45
2020/12/07 06:58:30;;;;;;;82.25;19.13;;;1.40;99.90;;;;;;5107340;28;20042;-45
2020/12/07 07:01:05;;;;;;;115.95;22.55;;;1.50;99.90;;;;;;5109432;28;20039;-45
2020/12/07 07:03:30;;;;;;;112.05;20.40;;;1.50;99.90;;;;;;5099376;28;20050;-47
2020/12/07 07:05:56;;;;;;;82.40;19.25;;;1.50;99.90;;;;;;5097431;28;20378;-45
2020/12/07 07:08:22;;;;;;;85.18;16.55;;;1.50;99.90;;;;;;5102467;28;20031;-45
2020/12/07 07:10:48;;;;;;;101.47;19.15;;;1.60;99.90;;;;;;5108447;28;20038;-45
2020/12/07 07:13:14;;;;;;;105.00;18.60;;;1.50;99.90;;;;;;5108064;28;20439;-45
2020/12/07 07:15:42;;;;;;;108.85;20.80;;;1.50;99.90;;;;;;5108265;28;20027;-45
2020/12/07 07:18:08;;;;;;;103.10;19.92;;;1.50;99.90;;;;;;5106667;27;20023;-45
2020/12/07 07:20:34;;;;;;;92.90;18.05;;;1.40;99.90;;;;;;5088001;28;20043;-46
2020/12/07 07:23:00;;;;;;;75.20;19.45;;;1.40;99.90;;;;;;5096721;28;20036;-45
2020/12/07 07:25:39;;;;;;;95.05;18.58;;;1.50;99.90;;;;;;5108528;28;20118;-45
2020/12/07 07:28:08;;;;;;;97.88;19.73;;;1.50;99.90;;;;;;5101664;27;20039;-45
2020/12/07 07:30:34;;;;;;;73.07;19.65;;;1.40;99.90;;;;;;5103603;28;20576;-45
2020/12/07 07:33:00;;;;;;;59.10;18.17;;;1.50;99.90;;;;;;5104990;27;20038;-45
2020/12/07 07:35:29;;;;;;;58.78;18.98;;;1.40;99.90;;;;;;5110663;27;20030;-45
2020/12/07 07:37:55;;;;;;;64.07;19.63;;;1.40;99.90;;;;;;5098858;28;20498;-45
2020/12/07 07:40:24;;;;;;;62.90;19.48;;;1.40;99.90;;;;;;5103044;28;20036;-45
2020/12/07 07:42:51;;;;;;;57.60;17.60;;;1.40;99.90;;;;;;5103502;28;20036;-45
2020/12/07 07:45:19;;;;;;;57.97;17.67;;;1.40;99.90;;;;;;5104663;28;20419;-45
2020/12/07 08:15:50;;;;;;;51.42;16.70;;;1.50;99.90;;;;;;5096727;28;20125;-46
2020/12/07 08:18:19;;;;;;;60.33;17.83;;;1.50;99.90;;;;;;5102885;28;20115;-46
2020/12/07 08:21:03;;;;;;;50.05;17.35;;;1.50;99.90;;;;;;5096843;28;20389;-45
2020/12/07 08:23:30;;;;;;;54.40;17.13;;;1.50;99.90;;;;;;5108642;28;20074;-46
2020/12/07 08:25:58;;;;;;;55.95;18.35;;;1.50;99.90;;;;;;5080944;28;20024;-45
2020/12/07 08:28:33;;;;;;;53.28;18.67;;;1.60;99.90;;;;;;5102975;28;20525;-45
2020/12/07 08:31:10;;;;;;;51.83;18.08;;;1.60;99.90;;;;;;5098304;28;20028;-45
2020/12/07 08:33:57;;;;;;;50.72;17.60;;;1.50;99.90;;;;;;5093663;28;20404;-45
2020/12/07 08:36:24;;;;;;;52.85;17.45;;;1.50;99.90;;;;;;5091743;28;20093;-46
2020/12/07 08:38:50;;;;;;;57.78;19.50;;;1.50;99.90;;;;;;5092828;28;20032;-46
2020/12/07 08:41:18;;;;;;;54.78;18.52;;;1.50;99.90;;;;;;5089415;28;20027;-45
2020/12/07 08:43:45;;;;;;;60.83;18.52;;;1.50;99.90;;;;;;5088598;28;20040;-46
2020/12/07 08:46:15;;;;;;;58.70;17.65;;;1.50;99.90;;;;;;5090674;28;20493;-46
2020/12/07 08:48:41;;;;;;;55.13;17.67;;;1.50;99.90;;;;;;5076136;28;20036;-46
2020/12/07 08:51:08;;;;;;;56.20;19.02;;;1.60;99.90;;;;;;5092736;28;20035;-46
2020/12/07 08:53:34;;;;;;;48.85;16.83;;;1.60;99.90;;;;;;5093717;27;20031;-46
2020/12/07 08:56:02;;;;;;;54.53;18.67;;;1.70;99.90;;;;;;5096322;27;20139;-45
2020/12/07 08:58:28;;;;;;;57.35;18.35;;;1.80;99.90;;;;;;5093981;27;20720;-45
2020/12/07 09:00:53;;;;;;;57.28;18.23;;;1.80;99.90;;;;;;5108497;28;20032;-44
2020/12/07 09:03:20;;;;;;;53.08;18.52;;;1.80;99.90;;;;;;5109797;28;20039;-45
2020/12/07 09:05:46;;;;;;;48.53;17.30;;;1.90;99.90;;;;;;5095369;27;20044;-44
2020/12/07 09:08:11;;;;;;;45.97;16.45;;;1.90;99.90;;;;;;5091474;28;20024;-44
2020/12/07 09:10:37;;;;;;;49.53;15.95;;;1.90;99.90;;;;;;5111009;28;20092;-44
2020/12/07 09:13:04;;;;;;;49.40;17.90;;;2.00;99.90;;;;;;5111066;28;20040;-45
2020/12/07 09:15:31;;;;;;;42.40;17.17;;;1.90;99.90;;;;;;5111122;28;20028;-46
2020/12/07 09:17:57;;;;;;;53.00;18.70;;;1.90;99.90;;;;;;5111482;28;20614;-45
2020/12/07 09:20:22;;;;;;;52.10;17.58;;;1.90;99.90;;;;;;5099370;28;20056;-45
2020/12/07 09:22:48;;;;;;;48.60;18.17;;;1.90;99.90;;;;;;5098114;28;20063;-46
2020/12/07 09:25:14;;;;;;;66.88;18.70;;;1.80;99.90;;;;;;5111308;28;20028;-46
2020/12/07 09:27:39;;;;;;;55.03;19.30;;;1.90;99.90;;;;;;5110959;28;20023;-45
2020/12/07 09:30:06;;;;;;;48.10;17.45;;;1.90;99.90;;;;;;5110933;28;20043;-45
2020/12/07 09:32:31;;;;;;;41.35;16.50;;;2.00;99.90;;;;;;5110784;28;20043;-46
2020/12/07 09:34:57;;;;;;;36.50;16.10;;;2.00;99.90;;;;;;5103851;28;20028;-46
2020/12/07 09:37:23;;;;;;;38.03;16.40;;;2.00;99.90;;;;;;5090413;28;20075;-47
2020/12/07 09:39:48;;;;;;;43.10;18.00;;;2.10;99.90;;;;;;5105250;28;20035;-46
2020/12/07 09:42:14;;;;;;;38.92;16.85;;;2.10;99.90;;;;;;5110295;28;20824;-46
2020/12/07 09:44:40;;;;;;;39.45;17.13;;;2.30;99.90;;;;;;5111033;28;20168;-46
2020/12/07 09:47:05;;;;;;;45.38;18.60;;;2.40;99.90;;;;;;5110891;28;20044;-47
2020/12/07 09:49:32;;;;;;;37.10;16.20;;;2.50;99.90;;;;;;5105227;28;20050;-45
2020/12/07 09:51:58;;;;;;;36.17;16.02;;;2.60;99.90;;;;;;5090218;28;20032;-46
2020/12/07 09:54:23;;;;;;;35.00;16.52;;;2.70;99.90;;;;;;5109306;28;20027;-46
2020/12/07 09:56:49;;;;;;;36.55;17.38;;;2.80;99.90;;;;;;5109129;28;20031;-47
2020/12/07 09:59:14;;;;;;;32.65;15.65;;;2.90;99.90;;;;;;5109053;28;20085;-47
2020/12/07 10:01:40;;;;;;;36.72;16.73;;;2.90;99.90;;;;;;5108971;28;20102;-46
2020/12/07 10:04:06;;;;;;;33.90;15.32;;;3.00;99.90;;;;;;5107800;28;20048;-43
2020/12/07 10:06:31;;;;;;;31.67;15.50;;;3.10;99.90;;;;;;5091007;27;20089;-46
2020/12/07 10:08:57;;;;;;;33.40;16.77;;;3.10;99.90;;;;;;5096475;28;20366;-46
2020/12/07 10:11:23;;;;;;;33.53;15.77;;;3.20;99.90;;;;;;5109889;28;20100;-46
2020/12/07 10:13:49;;;;;;;34.38;14.77;;;3.30;99.90;;;;;;5109597;28;20082;-46
2020/12/07 10:16:15;;;;;;;34.80;16.30;;;3.40;99.90;;;;;;5109719;28;20525;-46
2020/12/07 10:18:41;;;;;;;32.13;14.85;;;3.40;99.90;;;;;;5107768;28;20027;-47
2020/12/07 10:21:07;;;;;;;30.85;14.75;;;3.50;99.90;;;;;;5097183;27;20035;-46
2020/12/07 10:23:33;;;;;;;33.55;15.32;;;3.40;99.90;;;;;;5101999;28;20104;-46
2020/12/07 10:25:59;;;;;;;33.83;14.05;;;3.50;99.90;;;;;;5108767;28;20032;-46
2020/12/07 10:28:24;;;;;;;34.38;15.07;;;3.50;99.90;;;;;;5107013;28;20036;-47
2020/12/07 10:30:50;;;;;;;36.55;15.52;;;3.50;99.90;;;;;;5108514;28;20086;-47
2020/12/07 10:33:16;;;;;;;32.63;15.27;;;3.60;99.90;;;;;;5107922;28;20074;-46
2020/12/07 10:35:41;;;;;;;32.33;15.20;;;3.60;99.90;;;;;;5101020;27;20035;-46
2020/12/07 10:38:07;;;;;;;31.52;13.57;;;3.70;99.90;;;;;;5088449;28;20828;-47
2020/12/07 10:40:33;;;;;;;31.85;14.27;;;3.60;99.90;;;;;;5101417;27;20562;-47
2020/12/07 10:42:59;;;;;;;31.75;14.13;;;3.60;99.90;;;;;;5115767;27;20023;-46
2020/12/07 10:47:57;;;;;;;30.42;15.05;;;3.60;99.90;;;;;;5086088;27;20032;-47
2020/12/07 10:50:22;;;;;;;28.27;15.48;;;3.60;99.90;;;;;;5108036;28;20031;-47
2020/12/07 10:52:50;;;;;;;26.30;14.00;;;3.70;99.90;;;;;;5104437;28;20343;-47
2020/12/07 10:55:15;;;;;;;31.85;14.85;;;3.60;99.90;;;;;;5107206;28;20491;-46
2020/12/07 10:57:41;;;;;;;34.38;16.15;;;3.50;99.90;;;;;;5107663;28;20067;-46
2020/12/07 11:00:07;;;;;;;36.42;15.45;;;3.60;99.90;;;;;;5108052;28;20473;-46
2020/12/07 11:02:33;;;;;;;31.10;14.82;;;3.50;99.90;;;;;;5100973;27;20044;-46
2020/12/07 11:04:59;;;;;;;30.02;14.68;;;3.50;99.90;;;;;;5094521;28;20651;-46
2020/12/07 11:07:26;;;;;;;35.00;14.90;;;3.50;99.90;;;;;;5109155;28;20042;-47
2020/12/07 11:09:52;;;;;;;30.05;15.15;;;3.70;99.90;;;;;;5108551;28;20024;-46
2020/12/07 11:12:21;;;;;;;29.10;14.20;;;3.70;99.90;;;;;;5107935;28;20374;-46
2020/12/07 11:14:47;;;;;;;29.05;14.85;;;3.70;99.90;;;;;;5107231;28;20374;-46
2020/12/07 11:17:12;;;;;;;29.77;14.80;;;3.60;99.90;;;;;;5103347;28;20035;-46
2020/12/07 11:19:42;;;;;;;30.27;14.75;;;3.60;99.90;;;;;;5100155;28;20035;-47
2020/12/07 11:22:08;;;;;;;33.13;15.93;;;3.60;99.90;;;;;;5106142;28;20051;-46
2020/12/07 11:24:34;;;;;;;32.58;15.38;;;3.60;99.90;;;;;;5107924;28;20224;-46
2020/12/07 11:26:59;;;;;;;34.40;15.85;;;3.60;99.90;;;;;;5108551;28;20027;-46
2020/12/07 11:29:25;;;;;;;27.75;15.45;;;3.70;99.90;;;;;;5107569;28;20473;-46
2020/12/07 11:31:51;;;;;;;34.97;16.55;;;3.60;99.90;;;;;;5081670;28;20043;-44
2020/12/07 11:34:19;;;;;;;33.80;16.58;;;3.60;99.90;;;;;;5103819;27;20039;-44
2020/12/07 11:36:47;;;;;;;34.17;17.00;;;3.60;99.90;;;;;;5090757;27;20051;-46
2020/12/07 11:44:20;;;;;;;36.83;16.35;;;3.80;99.90;;;;;;5080735;28;20051;-45
2020/12/07 11:46:53;;;;;;;35.05;16.08;;;3.90;99.90;;;;;;5084502;28;20028;-45
2020/12/07 11:49:19;;;;;;;;;;;3.90;99.90;;;;;;5084849;28;20040;-46
2020/12/07 11:51:44;;;;;;;35.15;16.67;;;3.90;99.90;;;;;;5087942;28;19931;-45
2020/12/07 11:54:10;;;;;;;36.05;16.65;;;4.00;99.90;;;;;;5083592;28;20067;-46
2020/12/07 11:56:38;;;;;;;32.97;16.13;;;4.00;99.90;;;;;;5088637;28;20032;-46
2020/12/07 11:59:04;;;;;;;33.83;16.13;;;4.10;99.90;;;;;;5083002;28;20032;-46
2020/12/07 12:01:31;;;;;;;37.80;18.63;;;4.10;99.90;;;;;;5088086;28;20028;-45
2020/12/07 12:03:57;;;;;;;38.25;15.52;;;4.30;99.90;;;;;;5075478;28;20048;-45
2020/12/07 12:06:27;;;;;;;33.55;17.92;;;4.50;99.90;;;;;;5084981;28;20383;-46
2020/12/07 12:08:53;;;;;;;37.55;19.13;;;4.60;99.90;;;;;;5097931;28;20031;-46
2020/12/07 12:11:20;;;;;;;31.73;16.83;;;4.60;99.90;;;;;;5102252;28;20027;-45
2020/12/07 12:13:46;;;;;;;38.45;18.73;;;4.70;99.90;;;;;;5100382;28;20034;-45
2020/12/07 12:16:15;;;;;;;40.63;18.52;;;4.80;99.90;;;;;;5100286;28;20063;-45
2020/12/07 12:18:41;;;;;;;41.35;19.17;;;4.90;99.90;;;;;;5088553;28;20478;-45
2020/12/07 12:21:10;;;;;;;42.40;18.50;;;4.90;99.90;;;;;;5068783;28;20082;-46
2020/12/07 12:23:40;;;;;;;31.90;17.92;;;4.90;99.90;;;;;;5083414;28;20040;-44
2020/12/07 12:26:06;;;;;;;35.60;17.33;;;4.80;99.90;;;;;;5073371;28;20158;-47
2020/12/07 12:28:32;;;;;;;28.95;15.43;;;4.90;99.90;;;;;;5081393;28;20096;-46
2020/12/07 12:30:58;;;;;;;32.75;16.55;;;4.80;99.90;;;;;;5103966;28;20077;-44
2020/12/07 12:33:24;;;;;;;30.38;14.60;;;4.70;99.90;;;;;;5108517;28;20027;-46
2020/12/07 12:35:49;;;;;;;27.35;14.25;;;4.70;99.90;;;;;;5111260;28;20028;-46
2020/12/07 12:38:15;;;;;;;33.10;16.15;;;4.70;99.90;;;;;;5108316;28;20134;-45
2020/12/07 12:40:41;;;;;;;28.58;15.93;;;4.80;99.90;;;;;;5110881;28;20043;-45
2020/12/07 12:43:06;;;;;;;32.25;17.63;;;4.80;99.90;;;;;;5110651;28;20035;-46
2020/12/07 12:45:32;;;;;;;37.53;18.67;;;4.80;99.90;;;;;;5108101;28;20649;-45
2020/12/07 12:47:58;;;;;;;35.60;19.67;;;4.70;99.90;;;;;;5107621;28;20036;-45
2020/12/07 12:50:23;;;;;;;35.70;18.67;;;4.70;99.90;;;;;;5107057;28;20038;-44
2020/12/07 12:55:29;;;;;;;39.50;20.67;;;4.80;99.90;;;;;;5093909;28;20039;-46
2020/12/07 12:57:55;;;;;;;46.50;23.52;;;4.80;99.90;;;;;;5106030;27;20058;-46
2020/12/07 13:00:21;;;;;;;79.93;43.83;;;4.80;99.90;;;;;;5096976;27;20117;-46
2020/12/07 13:02:47;;;;;;;95.20;52.25;;;4.80;99.90;;;;;;5110113;28;20036;-46
2020/12/07 13:05:13;;;;;;;70.93;32.92;;;4.80;99.90;;;;;;5110267;28;20181;-47
2020/12/07 13:07:40;;;;;;;47.58;23.67;;;4.80;99.90;;;;;;5106538;28;20082;-47